Big Bear Station Historical Data
Daily Summary for February 24, 2019 Units:  Both    English   Metric
Next Day »
Daily Weekly Monthly Yearly Custom
  High: Low: Average:
Temperature: 46.6 °F /  8.1 °C 15.4 °F /  -9.2 °C 27.3 °F /  -2.6 °C
Dew Point: 26.7 °F /  -2.9 °C 13.2 °F /  -10.4 °C 19.4 °F /  -7 °C
Humidity: 91% 38% 75%
Wind Speed: 4.7mph /  7.6km/h - 0.6mph /  1km/h
Wind Gust: -999.0mph /  -1607.7km/h - -
Wind- - WNW
Pressure: 23.55 in /  797.4 hPa 23.44 in /  793.7 hPa -
Precipitation: 0.43 in /  10.92 mm    
Historical Graphs
 
 
Tabular Data for February 24, 2019
Time Temperature Dew Point Pressure Wind Wind Speed Wind Gust Humidity Rainfall Rate (Hourly)
00:11 19.0 °F /  -7.2 °C 16.8 °F /  -8.4 °C 23.55in /  797.4hPa Calm   -999.0mph /  -1607.7km/h 91% 0.00in /  0mm
00:26 18.9 °F /  -7.3 °C 16.7 °F /  -8.5 °C 23.55in /  797.4hPa Calm   -999.0mph /  -1607.7km/h 91% 0.00in /  0mm
00:41 18.7 °F /  -7.4 °C 16.5 °F /  -8.6 °C 23.55in /  797.4hPa Calm   -999.0mph /  -1607.7km/h 91% 0.00in /  0mm
00:56 18.5 °F /  -7.5 °C 15.8 °F /  -9 °C 23.55in /  797.4hPa Calm   -999.0mph /  -1607.7km/h 89% 0.00in /  0mm
01:12 18.0 °F /  -7.8 °C 15.3 °F /  -9.3 °C 23.55in /  797.4hPa Calm   -999.0mph /  -1607.7km/h 89% 0.00in /  0mm
01:27 17.6 °F /  -8 °C 14.9 °F /  -9.5 °C 23.55in /  797.4hPa Calm   -999.0mph /  -1607.7km/h 89% 0.00in /  0mm
01:42 17.1 °F /  -8.3 °C 14.4 °F /  -9.8 °C 23.54in /  797.1hPa Calm   -999.0mph /  -1607.7km/h 89% 0.00in /  0mm
01:57 16.9 °F /  -8.4 °C 14.2 °F /  -9.9 °C 23.54in /  797.1hPa Calm   -999.0mph /  -1607.7km/h 89% 0.00in /  0mm
02:12 16.5 °F /  -8.6 °C 14.1 °F /  -9.9 °C 23.54in /  797.1hPa Calm   -999.0mph /  -1607.7km/h 90% 0.00in /  0mm
02:28 16.3 °F /  -8.7 °C 13.9 °F /  -10.1 °C 23.53in /  796.7hPa Calm   -999.0mph /  -1607.7km/h 90% 0.00in /  0mm
02:43 16.3 °F /  -8.7 °C 14.1 °F /  -9.9 °C 23.53in /  796.7hPa Calm   -999.0mph /  -1607.7km/h 91% 0.00in /  0mm
02:58 16.2 °F /  -8.8 °C 14.0 °F /  -10 °C 23.53in /  796.7hPa Calm   -999.0mph /  -1607.7km/h 91% 0.00in /  0mm
03:13 16.0 °F /  -8.9 °C 13.8 °F /  -10.1 °C 23.53in /  796.7hPa Calm   -999.0mph /  -1607.7km/h 91% 0.00in /  0mm
03:28 15.8 °F /  -9 °C 13.6 °F /  -10.2 °C 23.52in /  796.4hPa Calm   -999.0mph /  -1607.7km/h 91% 0.00in /  0mm
03:44 15.8 °F /  -9 °C 13.6 °F /  -10.2 °C 23.52in /  796.4hPa Calm   -999.0mph /  -1607.7km/h 91% 0.00in /  0mm
03:59 16.3 °F /  -8.7 °C 13.9 °F /  -10.1 °C 23.52in /  796.4hPa Calm   -999.0mph /  -1607.7km/h 90% 0.00in /  0mm
04:14 16.2 °F /  -8.8 °C 13.8 °F /  -10.1 °C 23.52in /  796.4hPa Calm   -999.0mph /  -1607.7km/h 90% 0.00in /  0mm
04:29 16.2 °F /  -8.8 °C 14.0 °F /  -10 °C 23.52in /  796.4hPa Calm   -999.0mph /  -1607.7km/h 91% 0.00in /  0mm
04:44 16.2 °F /  -8.8 °C 13.8 °F /  -10.1 °C 23.52in /  796.4hPa Calm   -999.0mph /  -1607.7km/h 90% 0.00in /  0mm
05:00 16.0 °F /  -8.9 °C 13.6 °F /  -10.2 °C 23.52in /  796.4hPa Calm   -999.0mph /  -1607.7km/h 90% 0.00in /  0mm
05:15 16.0 °F /  -8.9 °C 13.6 °F /  -10.2 °C 23.52in /  796.4hPa Calm   -999.0mph /  -1607.7km/h 90% 0.00in /  0mm
05:30 16.0 °F /  -8.9 °C 13.6 °F /  -10.2 °C 23.52in /  796.4hPa Calm   -999.0mph /  -1607.7km/h 90% 0.00in /  0mm
05:45 16.0 °F /  -8.9 °C 13.8 °F /  -10.1 °C 23.52in /  796.4hPa Calm   -999.0mph /  -1607.7km/h 91% 0.00in /  0mm
06:01 16.0 °F /  -8.9 °C 13.8 °F /  -10.1 °C 23.52in /  796.4hPa Calm   -999.0mph /  -1607.7km/h 91% 0.00in /  0mm
06:16 16.0 °F /  -8.9 °C 13.8 °F /  -10.1 °C 23.52in /  796.4hPa Calm   -999.0mph /  -1607.7km/h 91% 0.00in /  0mm
06:31 15.4 °F /  -9.2 °C 13.2 °F /  -10.4 °C 23.52in /  796.4hPa Calm   -999.0mph /  -1607.7km/h 91% 0.00in /  0mm
06:46 15.6 °F /  -9.1 °C 13.4 °F /  -10.3 °C 23.52in /  796.4hPa Calm   -999.0mph /  -1607.7km/h 91% 0.00in /  0mm
07:01 16.7 °F /  -8.5 °C 14.3 °F /  -9.8 °C 23.52in /  796.4hPa Calm   -999.0mph /  -1607.7km/h 90% 0.00in /  0mm
07:17 16.9 °F /  -8.4 °C 14.5 °F /  -9.7 °C 23.52in /  796.4hPa Calm   -999.0mph /  -1607.7km/h 90% 0.00in /  0mm
07:32 18.0 °F /  -7.8 °C 15.6 °F /  -9.1 °C 23.52in /  796.4hPa Calm   -999.0mph /  -1607.7km/h 90% 0.00in /  0mm
07:47 18.7 °F /  -7.4 °C 16.0 °F /  -8.9 °C 23.52in /  796.4hPa Calm   -999.0mph /  -1607.7km/h 89% 0.00in /  0mm
08:02 19.2 °F /  -7.1 °C 16.5 °F /  -8.6 °C 23.52in /  796.4hPa Calm   -999.0mph /  -1607.7km/h 89% 0.00in /  0mm
08:17 19.9 °F /  -6.7 °C 16.9 °F /  -8.4 °C 23.52in /  796.4hPa Calm   -999.0mph /  -1607.7km/h 88% 0.00in /  0mm
08:33 20.3 °F /  -6.5 °C 17.3 °F /  -8.2 °C 23.52in /  796.4hPa Calm   -999.0mph /  -1607.7km/h 88% 0.00in /  0mm
08:48 21.6 °F /  -5.8 °C 18.1 °F /  -7.7 °C 23.53in /  796.7hPa Calm   -999.0mph /  -1607.7km/h 86% 0.00in /  0mm
09:03 22.3 °F /  -5.4 °C 18.2 °F /  -7.7 °C 23.52in /  796.4hPa Calm   -999.0mph /  -1607.7km/h 84% 0.00in /  0mm
09:18 23.2 °F /  -4.9 °C 17.7 °F /  -7.9 °C 23.52in /  796.4hPa Calm   -999.0mph /  -1607.7km/h 79% 0.00in /  0mm
09:33 25.7 °F /  -3.5 °C 18.9 °F /  -7.3 °C 23.51in /  796hPa Calm   -999.0mph /  -1607.7km/h 75% 0.00in /  0mm
09:49 28.6 °F /  -1.9 °C 20.7 °F /  -6.3 °C 23.51in /  796hPa Calm   -999.0mph /  -1607.7km/h 72% 0.00in /  0mm
10:04 33.8 °F /  1 °C 21.4 °F /  -5.9 °C 23.51in /  796hPa NW 2.7mph /  4.3km/h -999.0mph /  -1607.7km/h 60% 0.00in /  0mm
10:19 38.7 °F /  3.7 °C 20.2 °F /  -6.6 °C 23.51in /  796hPa Calm   -999.0mph /  -1607.7km/h 47% 0.00in /  0mm
10:34 43.3 °F /  6.3 °C 22.3 °F /  -5.4 °C 23.51in /  796hPa Calm   -999.0mph /  -1607.7km/h 43% 0.00in /  0mm
10:49 45.1 °F /  7.3 °C 23.4 °F /  -4.8 °C 23.51in /  796hPa Calm   -999.0mph /  -1607.7km/h 42% 0.00in /  0mm
11:05 46.0 °F /  7.8 °C 23.0 °F /  -5 °C 23.51in /  796hPa North 1.7mph /  2.7km/h -999.0mph /  -1607.7km/h 40% 0.00in /  0mm
11:20 45.7 °F /  7.6 °C 21.5 °F /  -5.8 °C 23.50in /  795.7hPa NW 2.7mph /  4.3km/h -999.0mph /  -1607.7km/h 38% 0.00in /  0mm
11:35 45.1 °F /  7.3 °C 22.8 °F /  -5.1 °C 23.50in /  795.7hPa NW 2.7mph /  4.3km/h -999.0mph /  -1607.7km/h 41% 0.00in /  0mm
11:51 45.9 °F /  7.7 °C 24.1 °F /  -4.4 °C 23.49in /  795.4hPa NNW 2.2mph /  3.5km/h -999.0mph /  -1607.7km/h 42% 0.00in /  0mm
12:06 45.7 °F /  7.6 °C 25.6 °F /  -3.6 °C 23.48in /  795hPa Calm   -999.0mph /  -1607.7km/h 45% 0.00in /  0mm
12:21 46.6 °F /  8.1 °C 23.6 °F /  -4.7 °C 23.48in /  795hPa NW 1.7mph /  2.7km/h -999.0mph /  -1607.7km/h 40% 0.00in /  0mm
12:37 45.0 °F /  7.2 °C 26.0 °F /  -3.3 °C 23.48in /  795hPa NW 2.7mph /  4.3km/h -999.0mph /  -1607.7km/h 47% 0.00in /  0mm
12:52 45.0 °F /  7.2 °C 23.3 °F /  -4.8 °C 23.47in /  794.7hPa NNW 3.2mph /  5.1km/h -999.0mph /  -1607.7km/h 42% 0.00in /  0mm
13:08 43.7 °F /  6.5 °C 23.7 °F /  -4.6 °C 23.47in /  794.7hPa NNW 3.2mph /  5.1km/h -999.0mph /  -1607.7km/h 45% 0.00in /  0mm
13:23 44.8 °F /  7.1 °C 22.5 °F /  -5.3 °C 23.46in /  794.4hPa NW 3.2mph /  5.1km/h -999.0mph /  -1607.7km/h 41% 0.00in /  0mm
13:38 43.7 °F /  6.5 °C 22.7 °F /  -5.2 °C 23.46in /  794.4hPa NNE 3.2mph /  5.1km/h -999.0mph /  -1607.7km/h 43% 0.00in /  0mm
13:53 41.0 °F /  5 °C 24.7 °F /  -4.1 °C 23.46in /  794.4hPa NNW 2.2mph /  3.5km/h -999.0mph /  -1607.7km/h 52% 0.00in /  0mm
14:08 43.2 °F /  6.2 °C 25.3 °F /  -3.7 °C 23.46in /  794.4hPa NW 2.2mph /  3.5km/h -999.0mph /  -1607.7km/h 49% 0.00in /  0mm
14:24 41.7 °F /  5.4 °C 24.9 °F /  -3.9 °C 23.45in /  794hPa NW 3.2mph /  5.1km/h -999.0mph /  -1607.7km/h 51% 0.00in /  0mm
14:39 41.2 °F /  5.1 °C 25.4 °F /  -3.7 °C 23.45in /  794hPa NNW 2.7mph /  4.3km/h -999.0mph /  -1607.7km/h 53% 0.00in /  0mm
14:54 39.7 °F /  4.3 °C 26.5 °F /  -3.1 °C 23.45in /  794hPa NNW 2.7mph /  4.3km/h -999.0mph /  -1607.7km/h 59% 0.00in /  0mm
15:09 39.9 °F /  4.4 °C 26.7 °F /  -2.9 °C 23.45in /  794hPa NW 1.7mph /  2.7km/h -999.0mph /  -1607.7km/h 59% 0.00in /  0mm
15:25 39.2 °F /  4 °C 26.5 °F /  -3.1 °C 23.45in /  794hPa Calm   -999.0mph /  -1607.7km/h 60% 0.00in /  0mm
15:40 37.8 °F /  3.2 °C 26.7 °F /  -2.9 °C 23.44in /  793.7hPa Calm   -999.0mph /  -1607.7km/h 64% 0.00in /  0mm
15:55 37.4 °F /  3 °C 23.5 °F /  -4.7 °C 23.44in /  793.7hPa NW 3.2mph /  5.1km/h -999.0mph /  -1607.7km/h 57% 0.00in /  0mm
16:10 37.6 °F /  3.1 °C 23.3 °F /  -4.8 °C 23.45in /  794hPa NNE 3.7mph /  6km/h -999.0mph /  -1607.7km/h 56% 0.00in /  0mm
16:26 37.2 °F /  2.9 °C 23.8 °F /  -4.6 °C 23.45in /  794hPa NNW 1.7mph /  2.7km/h -999.0mph /  -1607.7km/h 58% 0.00in /  0mm
16:41 35.8 °F /  2.1 °C 24.0 °F /  -4.4 °C 23.45in /  794hPa WNW 4.7mph /  7.6km/h -999.0mph /  -1607.7km/h 62% 0.00in /  0mm
16:56 34.9 °F /  1.6 °C 23.6 °F /  -4.7 °C 23.45in /  794hPa North 2.2mph /  3.5km/h -999.0mph /  -1607.7km/h 63% 0.00in /  0mm
17:11 34.3 °F /  1.3 °C 23.0 °F /  -5 °C 23.45in /  794hPa Calm   -999.0mph /  -1607.7km/h 63% 0.00in /  0mm
17:26 33.3 °F /  0.7 °C 23.5 °F /  -4.7 °C 23.45in /  794hPa Calm   -999.0mph /  -1607.7km/h 67% 0.00in /  0mm
17:42 32.2 °F /  0.1 °C 21.0 °F /  -6.1 °C 23.45in /  794hPa Calm   -999.0mph /  -1607.7km/h 63% 0.00in /  0mm
17:57 32.2 °F /  0.1 °C 21.4 °F /  -5.9 °C 23.45in /  794hPa Calm   -999.0mph /  -1607.7km/h 64% 0.00in /  0mm
18:12 31.1 °F /  -0.5 °C 22.5 °F /  -5.3 °C 23.45in /  794hPa Calm   -999.0mph /  -1607.7km/h 70% 0.00in /  0mm
18:27 29.8 °F /  -1.2 °C 22.5 °F /  -5.3 °C 23.45in /  794hPa Calm   -999.0mph /  -1607.7km/h 74% 0.00in /  0mm
18:43 28.9 °F /  -1.7 °C 22.0 °F /  -5.6 °C 23.45in /  794hPa Calm   -999.0mph /  -1607.7km/h 75% 0.00in /  0mm
18:58 28.0 °F /  -2.2 °C 21.7 °F /  -5.7 °C 23.45in /  794hPa Calm   -999.0mph /  -1607.7km/h 77% 0.00in /  0mm
19:14 27.3 °F /  -2.6 °C 22.5 °F /  -5.3 °C 23.45in /  794hPa Calm   -999.0mph /  -1607.7km/h 82% 0.00in /  0mm
19:29 26.8 °F /  -2.9 °C 21.5 °F /  -5.8 °C 23.45in /  794hPa Calm   -999.0mph /  -1607.7km/h 80% 0.00in /  0mm
19:44 26.1 °F /  -3.3 °C 21.4 °F /  -5.9 °C 23.45in /  794hPa Calm   -999.0mph /  -1607.7km/h 82% 0.00in /  0mm
19:59 25.5 °F /  -3.6 °C 21.3 °F /  -5.9 °C 23.45in /  794hPa Calm   -999.0mph /  -1607.7km/h 84% 0.00in /  0mm
20:14 25.3 °F /  -3.7 °C 21.4 °F /  -5.9 °C 23.45in /  794hPa Calm   -999.0mph /  -1607.7km/h 85% 0.00in /  0mm
20:30 24.8 °F /  -4 °C 21.2 °F /  -6 °C 23.45in /  794hPa Calm   -999.0mph /  -1607.7km/h 86% 0.00in /  0mm
20:45 24.6 °F /  -4.1 °C 21.0 °F /  -6.1 °C 23.45in /  794hPa Calm   -999.0mph /  -1607.7km/h 86% 0.00in /  0mm
21:00 23.9 °F /  -4.5 °C 20.6 °F /  -6.3 °C 23.46in /  794.4hPa Calm   -999.0mph /  -1607.7km/h 87% 0.00in /  0mm
21:15 23.5 °F /  -4.7 °C 20.2 °F /  -6.6 °C 23.47in /  794.7hPa Calm   -999.0mph /  -1607.7km/h 87% 0.00in /  0mm
21:30 23.5 °F /  -4.7 °C 20.2 °F /  -6.6 °C 23.46in /  794.4hPa Calm   -999.0mph /  -1607.7km/h 87% 0.00in /  0mm
21:46 23.4 °F /  -4.8 °C 20.4 °F /  -6.4 °C 23.46in /  794.4hPa Calm   -999.0mph /  -1607.7km/h 88% 0.00in /  0mm
22:01 22.6 °F /  -5.2 °C 19.6 °F /  -6.9 °C 23.46in /  794.4hPa Calm   -999.0mph /  -1607.7km/h 88% 0.00in /  0mm
22:17 22.5 °F /  -5.3 °C 19.7 °F /  -6.8 °C 23.47in /  794.7hPa Calm   -999.0mph /  -1607.7km/h 89% 0.00in /  0mm
22:32 22.3 °F /  -5.4 °C 19.8 °F /  -6.8 °C 23.47in /  794.7hPa Calm   -999.0mph /  -1607.7km/h 90% 0.00in /  0mm
22:47 21.9 °F /  -5.6 °C 19.4 °F /  -7 °C 23.47in /  794.7hPa Calm   -999.0mph /  -1607.7km/h 90% 0.00in /  0mm
23:02 22.1 °F /  -5.5 °C 19.6 °F /  -6.9 °C 23.47in /  794.7hPa Calm   -999.0mph /  -1607.7km/h 90% 0.00in /  0mm
23:17 21.9 °F /  -5.6 °C 19.4 °F /  -7 °C 23.47in /  794.7hPa Calm   -999.0mph /  -1607.7km/h 90% 0.00in /  0mm
23:33 21.9 °F /  -5.6 °C 19.4 °F /  -7 °C 23.47in /  794.7hPa Calm   -999.0mph /  -1607.7km/h 90% 0.00in /  0mm
23:48 21.7 °F /  -5.7 °C 19.2 °F /  -7.1 °C 23.47in /  794.7hPa Calm   -999.0mph /  -1607.7km/h 90% 0.00in /  0mm
Big Bear CA Weather